createdAt,value
2018-12-04T00:01:33.141Z,0.97
2018-12-04T00:04:06.635Z,0.60
2018-12-04T00:06:35.057Z,0.20
2018-12-04T00:09:07.645Z,0.20
2018-12-04T00:11:36.114Z,2.13
2018-12-04T00:14:05.080Z,0.20
2018-12-04T00:16:33.485Z,0.63
2018-12-04T00:19:04.177Z,0.70
2018-12-04T00:21:32.582Z,0.30
2018-12-04T00:24:04.432Z,0.73
2018-12-04T00:26:32.836Z,0.43
2018-12-04T00:29:03.866Z,1.90
2018-12-04T00:31:32.296Z,0.57
2018-12-04T00:34:00.686Z,1.53
2018-12-04T00:36:29.333Z,1.00
2018-12-04T00:39:06.509Z,0.50
2018-12-04T00:41:34.972Z,2.20
2018-12-04T00:44:05.105Z,1.30
2018-12-04T00:46:33.580Z,0.40
2018-12-04T00:49:03.897Z,0.47
2018-12-04T00:51:32.312Z,0.50
2018-12-04T00:54:04.417Z,0.67
2018-12-04T00:56:32.849Z,0.70
2018-12-04T00:59:03.868Z,1.83
2018-12-04T01:01:32.273Z,0.40
2018-12-04T01:04:00.671Z,0.70
2018-12-04T01:06:29.226Z,0.93
2018-12-04T01:08:57.657Z,0.50
2018-12-04T01:11:26.279Z,0.70
2018-12-04T01:13:54.681Z,0.97
2018-12-04T01:16:23.101Z,1.30
2018-12-04T01:18:51.502Z,1.00
2018-12-04T01:21:19.948Z,1.23
2018-12-04T01:23:48.395Z,1.23
2018-12-04T01:26:16.952Z,0.70
2018-12-04T01:28:45.940Z,1.03
2018-12-04T01:31:14.565Z,1.40
2018-12-04T01:33:43.024Z,1.23
2018-12-04T01:36:11.477Z,0.53
2018-12-04T01:38:39.897Z,0.50
2018-12-04T01:41:08.301Z,1.37
2018-12-04T01:43:37.004Z,0.53
2018-12-04T01:46:07.249Z,0.30
2018-12-04T01:48:35.680Z,0.30
2018-12-04T01:51:05.165Z,1.57
2018-12-04T01:53:33.608Z,0.67
2018-12-04T01:56:04.554Z,0.97
2018-12-04T01:58:33.001Z,5.10
2018-12-04T02:01:03.628Z,1.33
2018-12-04T02:03:32.069Z,1.73
2018-12-04T02:06:00.462Z,1.43
2018-12-04T02:08:28.890Z,1.93
2018-12-04T02:10:57.271Z,0.50
2018-12-04T02:13:25.897Z,1.37
2018-12-04T02:15:54.284Z,0.80
2018-12-04T02:18:22.714Z,1.00
2018-12-04T02:20:51.105Z,0.97
2018-12-04T02:23:19.540Z,0.93
2018-12-04T02:25:47.928Z,1.20
2018-12-04T02:28:16.336Z,3.43
2018-12-04T02:30:44.731Z,1.33
2018-12-04T02:33:13.148Z,1.07
2018-12-04T02:35:41.553Z,1.27
2018-12-04T02:38:10.001Z,0.77
2018-12-04T02:40:38.400Z,1.33
2018-12-04T02:43:06.837Z,1.73
2018-12-04T02:45:35.241Z,3.30
2018-12-04T02:48:05.377Z,1.73
2018-12-04T02:50:33.904Z,0.83
2018-12-04T02:53:05.615Z,1.07
2018-12-04T02:55:34.039Z,2.23
2018-12-04T02:58:05.393Z,0.87
2018-12-04T03:00:33.802Z,0.57
2018-12-04T03:03:06.147Z,0.47
2018-12-04T03:05:34.557Z,1.47
2018-12-04T03:08:05.376Z,0.43
2018-12-04T03:10:33.789Z,0.97
2018-12-04T03:13:04.359Z,1.23
2018-12-04T03:15:32.830Z,0.73
2018-12-04T03:18:04.487Z,1.60
2018-12-04T03:20:32.916Z,0.77
2018-12-04T03:23:03.669Z,1.17
2018-12-04T03:25:32.104Z,0.37
2018-12-04T03:28:00.513Z,1.20
2018-12-04T03:30:28.963Z,0.47
2018-12-04T03:32:57.375Z,0.50
2018-12-04T03:35:25.822Z,1.57
2018-12-04T03:37:54.237Z,1.47
2018-12-04T03:40:22.672Z,0.53
2018-12-04T03:42:51.076Z,0.60
2018-12-04T03:45:19.517Z,0.63
2018-12-04T03:47:47.921Z,0.43
2018-12-04T03:50:16.364Z,0.40
2018-12-04T03:52:44.759Z,0.77
2018-12-04T03:55:13.205Z,0.67
2018-12-04T03:57:41.821Z,0.30
2018-12-04T04:00:10.255Z,0.60
2018-12-04T04:02:38.788Z,0.87
2018-12-04T04:05:07.465Z,1.10
2018-12-04T04:07:35.871Z,1.43
2018-12-04T04:10:06.515Z,0.47
2018-12-04T04:12:34.917Z,0.50
2018-12-04T04:15:05.566Z,0.40
2018-12-04T04:17:34.004Z,0.70
2018-12-04T04:20:04.373Z,1.03
2018-12-04T04:22:32.814Z,0.30
2018-12-04T04:25:03.670Z,0.43
2018-12-04T04:27:32.122Z,2.60
2018-12-04T04:30:00.530Z,0.70
2018-12-04T04:32:28.960Z,0.77
2018-12-04T04:34:57.389Z,2.37
2018-12-04T04:37:25.816Z,0.20
2018-12-04T04:39:54.219Z,0.27
2018-12-04T04:42:22.650Z,1.50
2018-12-04T04:44:51.057Z,0.80
2018-12-04T04:47:19.482Z,0.37
2018-12-04T04:49:47.887Z,0.50
2018-12-04T04:52:16.319Z,0.37
2018-12-04T04:54:44.730Z,0.80
2018-12-04T04:57:13.157Z,0.40
2018-12-04T04:59:41.788Z,1.03
2018-12-04T05:02:10.285Z,0.50
2018-12-04T05:04:38.751Z,1.10
2018-12-04T05:07:07.175Z,2.23
2018-12-04T05:09:35.572Z,1.20
2018-12-04T05:12:05.229Z,0.47
2018-12-04T05:14:33.638Z,0.63
2018-12-04T05:17:04.620Z,0.50
2018-12-04T05:19:33.034Z,0.20
2018-12-04T05:22:04.464Z,0.30
2018-12-04T05:24:32.893Z,1.60
2018-12-04T05:27:03.677Z,0.40
2018-12-04T05:29:32.093Z,0.57
2018-12-04T05:32:00.525Z,0.83
2018-12-04T05:34:29.010Z,1.33
2018-12-04T05:36:57.458Z,1.17
2018-12-04T05:39:25.856Z,0.30
2018-12-04T05:41:54.253Z,0.43
2018-12-04T05:44:22.698Z,0.77
2018-12-04T05:46:51.110Z,0.40
2018-12-04T05:49:19.500Z,0.40
2018-12-04T05:51:48.243Z,0.30
2018-12-04T05:54:16.641Z,1.90
2018-12-04T05:56:45.037Z,1.53
2018-12-04T05:59:13.497Z,0.80
2018-12-04T06:01:41.912Z,0.40
2018-12-04T06:04:10.354Z,1.80
2018-12-04T06:06:38.806Z,0.87
2018-12-04T06:09:07.932Z,0.50
2018-12-04T06:11:36.393Z,0.60
2018-12-04T06:14:05.042Z,0.63
2018-12-04T06:16:33.493Z,2.80
2018-12-04T06:19:03.665Z,0.57
2018-12-04T06:21:32.064Z,0.50
2018-12-04T06:24:00.617Z,2.37
2018-12-04T06:26:29.062Z,1.90
2018-12-04T06:28:57.589Z,1.27
2018-12-04T06:31:25.965Z,3.60
2018-12-04T06:33:54.393Z,1.27
2018-12-04T06:36:23.208Z,0.83
2018-12-04T06:38:51.896Z,1.80
2018-12-04T06:41:20.285Z,1.27
2018-12-04T06:43:48.712Z,1.80
2018-12-04T06:46:17.109Z,5.57
2018-12-04T06:48:45.558Z,1.77
2018-12-04T06:51:13.959Z,4.03
2018-12-04T06:53:42.400Z,2.30
2018-12-04T06:56:10.816Z,4.23
2018-12-04T06:58:39.253Z,4.23
2018-12-04T07:01:07.651Z,0.97
2018-12-04T07:03:36.076Z,2.97
2018-12-04T07:06:05.011Z,2.17
2018-12-04T07:08:33.438Z,1.63
2018-12-04T07:11:03.441Z,1.20
2018-12-04T07:13:31.860Z,0.63
2018-12-04T07:16:00.253Z,3.40
2018-12-04T07:18:28.688Z,2.13
2018-12-04T07:20:57.080Z,0.60
2018-12-04T07:23:25.512Z,2.80
2018-12-04T07:25:53.916Z,1.73
2018-12-04T07:28:22.340Z,0.67
2018-12-04T07:30:50.809Z,2.20
2018-12-04T07:33:19.274Z,5.23
2018-12-04T07:35:47.717Z,1.50
2018-12-04T07:38:16.168Z,0.77
2018-12-04T07:40:44.599Z,1.13
2018-12-04T07:43:12.996Z,1.97
2018-12-04T07:45:41.420Z,3.47
2018-12-04T07:48:09.828Z,6.30
2018-12-04T07:50:38.256Z,1.37
2018-12-04T07:53:06.665Z,2.30
2018-12-04T07:55:35.084Z,1.97
2018-12-04T07:58:05.278Z,0.77
2018-12-04T08:00:33.943Z,1.30
2018-12-04T08:03:04.549Z,0.90
2018-12-04T08:05:33.005Z,1.07
2018-12-04T08:10:35.829Z,1.27
2018-12-04T08:13:05.753Z,0.80
2018-12-04T08:15:34.184Z,4.00
2018-12-04T08:18:05.865Z,0.83
2018-12-04T08:20:34.432Z,1.10
2018-12-04T08:23:05.404Z,2.53
2018-12-04T08:25:33.948Z,2.03
2018-12-04T08:28:04.633Z,1.87
2018-12-04T08:30:33.064Z,1.40
2018-12-04T08:33:04.209Z,1.00
2018-12-04T08:35:32.644Z,1.23
2018-12-04T08:38:03.633Z,1.87
2018-12-04T08:40:32.058Z,1.60
2018-12-04T08:43:00.440Z,2.07
2018-12-04T08:45:28.857Z,1.83
2018-12-04T08:47:57.242Z,2.03
2018-12-04T08:50:25.676Z,1.30
2018-12-04T08:52:54.062Z,1.63
2018-12-04T08:55:22.476Z,1.43
2018-12-04T08:57:50.880Z,1.83
2018-12-04T09:00:20.009Z,0.97
2018-12-04T09:02:48.416Z,2.13
2018-12-04T09:05:16.915Z,0.87
2018-12-04T09:07:45.456Z,1.77
2018-12-04T09:10:14.385Z,1.23
2018-12-04T09:12:42.782Z,0.80
2018-12-04T09:15:11.177Z,3.07
2018-12-04T09:17:39.609Z,0.60
2018-12-04T09:20:08.774Z,1.03
2018-12-04T09:22:37.336Z,1.53
2018-12-04T09:25:05.968Z,2.03
2018-12-04T09:27:34.376Z,1.93
2018-12-04T09:30:06.412Z,1.70
2018-12-04T09:32:34.929Z,1.10
2018-12-04T09:35:06.347Z,0.60
2018-12-04T09:37:34.738Z,1.90
2018-12-04T09:40:05.983Z,2.47
2018-12-04T09:42:34.389Z,1.17
2018-12-04T09:45:06.596Z,0.87
2018-12-04T09:47:34.992Z,1.17
2018-12-04T09:50:06.847Z,2.23
2018-12-04T09:52:35.228Z,1.70
2018-12-04T09:55:05.655Z,2.10
2018-12-04T09:57:34.084Z,1.57
2018-12-04T10:00:05.225Z,1.47
2018-12-04T10:02:33.659Z,1.50
2018-12-04T10:05:04.764Z,0.80
2018-12-04T10:07:33.184Z,1.23
2018-12-04T10:10:03.720Z,0.73
2018-12-04T10:12:32.136Z,1.33
2018-12-04T10:15:00.526Z,1.47
2018-12-04T10:17:28.980Z,1.30
2018-12-04T10:19:57.388Z,0.60
2018-12-04T10:22:25.893Z,0.57
2018-12-04T10:24:54.556Z,1.50
2018-12-04T10:27:22.960Z,1.43
2018-12-04T10:29:51.396Z,1.30
2018-12-04T10:32:19.808Z,1.33
2018-12-04T10:34:48.209Z,1.43
2018-12-04T10:37:16.640Z,3.10
2018-12-04T10:39:45.030Z,1.27
2018-12-04T10:42:13.433Z,2.23
2018-12-04T10:44:41.841Z,2.80
2018-12-04T10:47:10.236Z,1.00
2018-12-04T10:49:39.883Z,2.67
2018-12-04T10:52:08.598Z,0.93
2018-12-04T10:54:38.622Z,2.70
2018-12-04T10:57:09.828Z,0.77
2018-12-04T10:59:39.743Z,1.50
2018-12-04T11:02:13.406Z,0.80
2018-12-04T11:04:41.804Z,1.50
2018-12-04T11:07:10.193Z,1.27
2018-12-04T11:09:40.145Z,1.03
2018-12-04T11:12:12.221Z,1.37
2018-12-04T11:14:39.201Z,1.03
2018-12-04T11:17:07.720Z,1.10
2018-12-04T11:19:36.169Z,2.20
2018-12-04T11:22:05.131Z,1.83
2018-12-04T11:24:33.568Z,2.03
2018-12-04T11:27:04.642Z,2.40
2018-12-04T11:29:33.739Z,1.73
2018-12-04T11:32:04.649Z,0.90
2018-12-04T11:34:33.086Z,1.10
2018-12-04T11:37:04.406Z,0.87
2018-12-04T11:39:32.832Z,0.83
2018-12-04T11:42:03.629Z,2.27
2018-12-04T11:44:32.094Z,0.80
2018-12-04T11:47:00.585Z,0.73
2018-12-04T11:49:29.022Z,1.03
2018-12-04T11:51:57.419Z,1.03
2018-12-04T11:54:25.850Z,1.17
2018-12-04T11:56:54.488Z,1.10
2018-12-04T11:59:23.029Z,0.80
2018-12-04T12:01:51.425Z,2.57
2018-12-04T12:04:19.858Z,0.87
2018-12-04T12:06:48.366Z,0.80
2018-12-04T12:09:16.812Z,1.67
2018-12-04T12:11:45.224Z,1.77
2018-12-04T12:14:13.977Z,1.40
2018-12-04T12:16:42.395Z,1.50
2018-12-04T12:19:10.792Z,1.20
2018-12-04T12:21:39.235Z,0.83
2018-12-04T12:24:07.628Z,1.63
2018-12-04T12:26:36.017Z,1.47
2018-12-04T12:29:06.293Z,1.07
2018-12-04T12:31:34.697Z,1.67
2018-12-04T12:34:05.342Z,2.17
2018-12-04T12:36:33.782Z,1.63
2018-12-04T12:39:04.771Z,2.13
2018-12-04T12:41:33.278Z,1.10
2018-12-04T12:44:03.634Z,3.63
2018-12-04T12:46:32.045Z,1.53
2018-12-04T12:49:00.788Z,1.80
2018-12-04T12:51:29.169Z,1.30
2018-12-04T12:53:57.613Z,1.10
2018-12-04T12:56:26.032Z,2.30
2018-12-04T12:58:54.445Z,2.27
2018-12-04T13:01:22.885Z,0.87
2018-12-04T13:03:51.274Z,0.50
2018-12-04T13:06:19.720Z,4.20
2018-12-04T13:08:48.156Z,0.70
2018-12-04T13:11:16.669Z,1.90
2018-12-04T13:13:45.077Z,2.17
2018-12-04T13:16:13.476Z,1.13
2018-12-04T13:18:42.060Z,1.50
2018-12-04T13:21:10.490Z,1.30
2018-12-04T13:23:39.336Z,1.93
2018-12-04T13:26:07.750Z,0.83
2018-12-04T13:28:36.209Z,0.90
2018-12-04T13:31:05.088Z,1.40
2018-12-04T13:33:33.492Z,1.00
2018-12-04T13:36:03.589Z,1.10
2018-12-04T13:38:32.038Z,1.00
2018-12-04T13:41:00.445Z,0.83
2018-12-04T13:43:28.885Z,1.57
2018-12-04T13:45:57.513Z,1.03
2018-12-04T13:48:25.921Z,4.07
2018-12-04T13:50:54.327Z,1.17
2018-12-04T13:53:22.715Z,2.47
2018-12-04T13:55:51.132Z,3.13
2018-12-04T13:58:19.529Z,2.17
2018-12-04T14:00:48.046Z,0.87
2018-12-04T14:03:16.494Z,0.70
2018-12-04T14:05:44.921Z,1.83
2018-12-04T14:08:13.444Z,0.70
2018-12-04T14:10:41.950Z,1.87
2018-12-04T14:13:10.332Z,1.77
2018-12-04T14:15:39.396Z,1.87
2018-12-04T14:18:08.143Z,2.27
2018-12-04T14:20:36.538Z,2.27
2018-12-04T14:23:06.703Z,1.60
2018-12-04T14:25:35.088Z,2.97
2018-12-04T14:28:06.748Z,2.10
2018-12-04T14:30:35.132Z,1.70
2018-12-04T14:33:06.920Z,1.87
2018-12-04T14:35:35.680Z,1.10
2018-12-04T14:38:06.528Z,2.67
2018-12-04T14:40:35.007Z,2.77
2018-12-04T14:43:06.687Z,2.47
2018-12-04T14:45:35.114Z,2.80
2018-12-04T14:48:05.924Z,2.70
2018-12-04T14:50:34.675Z,1.63
2018-12-04T14:53:08.673Z,3.10
2018-12-04T14:55:37.149Z,5.57
2018-12-04T14:58:07.079Z,3.80
2018-12-04T15:00:36.120Z,2.83
2018-12-04T15:03:07.390Z,2.40
2018-12-04T15:05:35.935Z,2.03
2018-12-04T15:08:06.809Z,2.10
2018-12-04T15:10:36.501Z,2.33
2018-12-04T15:13:06.082Z,2.60
2018-12-04T15:15:37.078Z,3.20
2018-12-04T15:18:07.378Z,2.67
2018-12-04T15:20:35.920Z,2.47
2018-12-04T15:23:06.064Z,2.23
2018-12-04T15:25:34.625Z,2.43
2018-12-04T15:28:05.228Z,2.07
2018-12-04T15:30:33.792Z,2.07
2018-12-04T15:33:07.545Z,2.43
2018-12-04T15:35:36.554Z,3.57
2018-12-04T15:38:06.012Z,3.97
2018-12-04T15:40:34.549Z,2.07
2018-12-04T15:43:05.358Z,2.73
2018-12-04T15:45:33.953Z,1.90
2018-12-04T15:48:04.662Z,1.90
2018-12-04T15:50:33.162Z,2.10
2018-12-04T15:53:03.505Z,3.03
2018-12-04T15:55:32.332Z,2.37
2018-12-04T15:58:00.817Z,3.50
2018-12-04T16:00:29.278Z,2.57
2018-12-04T16:02:58.352Z,3.20
2018-12-04T16:05:26.946Z,2.77
2018-12-04T16:08:07.950Z,3.90
2018-12-04T16:10:36.456Z,2.50
2018-12-04T16:15:52.433Z,3.40
2018-12-04T16:18:22.252Z,2.20
2018-12-04T16:20:50.637Z,4.20
2018-12-04T16:23:19.105Z,6.33
2018-12-04T16:25:47.492Z,3.10
2018-12-04T16:28:15.877Z,3.33
2018-12-04T16:30:44.412Z,4.83
2018-12-04T16:33:12.800Z,2.30
2018-12-04T16:35:41.277Z,4.13
2018-12-04T16:38:09.656Z,3.23
2018-12-04T16:40:41.933Z,2.43
2018-12-04T16:43:10.344Z,2.63
2018-12-04T16:45:38.789Z,3.43
2018-12-04T16:48:07.200Z,3.40
2018-12-04T16:50:35.610Z,2.87
2018-12-04T16:53:08.209Z,3.10
2018-12-04T16:55:36.733Z,4.03
2018-12-04T16:58:06.141Z,3.00
2018-12-04T17:00:34.640Z,3.30
2018-12-04T17:03:05.261Z,3.10
2018-12-04T17:05:33.691Z,3.10
2018-12-04T17:08:04.664Z,3.43
2018-12-04T17:10:33.057Z,4.17
2018-12-04T17:13:05.838Z,5.10
2018-12-04T17:15:34.249Z,4.63
2018-12-04T17:18:06.389Z,5.73
2018-12-04T17:20:34.777Z,4.93
2018-12-04T17:23:06.800Z,4.23
2018-12-04T17:25:35.188Z,3.50
2018-12-04T17:28:05.825Z,6.90
2018-12-04T17:30:34.225Z,4.33
2018-12-04T17:33:05.372Z,6.00
2018-12-04T17:35:36.197Z,4.47
2018-12-04T17:38:06.464Z,6.00
2018-12-04T17:40:34.840Z,4.47
2018-12-04T17:43:06.117Z,6.00
2018-12-04T17:45:34.501Z,5.27
2018-12-04T17:48:05.216Z,5.23
2018-12-04T17:50:33.592Z,4.40
2018-12-04T17:53:08.897Z,5.40
2018-12-04T17:55:37.296Z,3.77
2018-12-04T17:58:05.830Z,5.77
2018-12-04T18:00:34.298Z,5.87
2018-12-04T18:03:05.273Z,4.73
2018-12-04T18:05:33.807Z,4.47
2018-12-04T18:08:04.558Z,3.87
2018-12-04T18:10:32.932Z,4.57
2018-12-04T18:13:04.292Z,2.23
2018-12-04T18:15:33.383Z,3.70
2018-12-04T18:18:03.715Z,2.67
2018-12-04T18:20:32.253Z,2.37
2018-12-04T18:23:04.363Z,3.70
2018-12-04T18:25:32.752Z,2.90
2018-12-04T18:28:03.584Z,3.70
2018-12-04T18:30:31.973Z,3.43
2018-12-04T18:33:00.456Z,5.47
2018-12-04T18:35:28.836Z,6.00
2018-12-04T18:37:57.279Z,5.90
2018-12-04T18:40:25.664Z,4.30
2018-12-04T18:42:54.093Z,8.70
2018-12-04T18:45:22.489Z,11.93
2018-12-04T18:47:50.950Z,5.20
2018-12-04T18:50:19.331Z,6.40
2018-12-04T18:52:47.802Z,10.73
2018-12-04T18:55:22.149Z,7.93
2018-12-04T18:57:50.852Z,6.33
2018-12-04T19:00:19.456Z,4.70
2018-12-04T19:02:47.912Z,6.30
2018-12-04T19:05:16.415Z,7.13
2018-12-04T19:07:45.206Z,6.63
2018-12-04T19:10:14.345Z,4.80
2018-12-04T19:12:43.427Z,2.83
2018-12-04T19:15:11.824Z,2.67
2018-12-04T19:17:40.284Z,2.97
2018-12-04T19:20:09.533Z,2.23
2018-12-04T19:22:38.606Z,3.40
2018-12-04T19:25:09.729Z,4.03
2018-12-04T19:27:38.261Z,3.20
2018-12-04T19:30:11.139Z,2.60
2018-12-04T19:32:39.620Z,3.47
2018-12-04T19:35:09.939Z,4.33
2018-12-04T19:37:38.656Z,3.60
2018-12-04T19:40:11.570Z,3.43
2018-12-04T19:42:44.121Z,5.00
2018-12-04T19:45:13.137Z,6.50
2018-12-04T19:47:42.355Z,3.70
2018-12-04T19:50:11.216Z,4.40
2018-12-04T19:52:39.901Z,5.57
2018-12-04T19:55:08.471Z,6.87
2018-12-04T19:57:37.232Z,5.60
2018-12-04T20:00:07.601Z,5.20
2018-12-04T20:02:36.277Z,5.73
2018-12-04T20:05:10.595Z,8.27
2018-12-04T20:07:39.165Z,8.43
2018-12-04T20:10:11.321Z,5.53
2018-12-04T20:12:40.833Z,5.07
2018-12-04T20:15:09.812Z,6.00
2018-12-04T20:17:38.608Z,5.80
2018-12-04T20:20:08.153Z,6.00
2018-12-04T20:22:36.575Z,6.80
2018-12-04T20:25:08.638Z,3.93
2018-12-04T20:27:37.645Z,4.07
2018-12-04T20:30:08.068Z,5.13
2018-12-04T20:32:36.500Z,4.30
2018-12-04T20:35:05.565Z,2.23
2018-12-04T20:37:33.983Z,4.93
2018-12-04T20:40:04.725Z,4.07
2018-12-04T20:42:33.155Z,3.53
2018-12-04T20:45:03.671Z,6.57
2018-12-04T20:47:32.047Z,3.83
2018-12-04T20:50:00.482Z,3.93
2018-12-04T20:52:28.869Z,5.93
2018-12-04T20:54:57.338Z,5.63
2018-12-04T20:57:25.750Z,5.70
2018-12-04T20:59:54.184Z,5.87
2018-12-04T21:02:22.653Z,8.00
2018-12-04T21:04:51.104Z,10.03
2018-12-04T21:07:19.733Z,7.50
2018-12-04T21:09:48.141Z,6.50
2018-12-04T21:12:16.604Z,4.27
2018-12-04T21:14:45.017Z,13.13
2018-12-04T21:17:13.424Z,12.93
2018-12-04T21:19:42.041Z,8.30
2018-12-04T21:22:10.470Z,15.40
2018-12-04T21:24:38.852Z,5.40
2018-12-04T21:27:12.070Z,12.60
2018-12-04T21:29:45.737Z,4.63
2018-12-04T21:33:17.099Z,4.17
2018-12-04T21:35:50.783Z,4.43
2018-12-04T21:38:25.556Z,4.83
2018-12-04T21:41:05.403Z,5.20
2018-12-04T21:43:39.793Z,2.97
2018-12-04T21:47:16.921Z,4.90
2018-12-04T21:49:45.435Z,6.30
2018-12-04T21:52:13.846Z,5.77
2018-12-04T21:54:42.277Z,6.20
2018-12-04T21:57:10.720Z,4.57
2018-12-04T21:59:39.278Z,6.63
2018-12-04T22:02:07.814Z,2.93
2018-12-04T22:04:36.230Z,4.43
2018-12-04T22:07:05.989Z,4.67
2018-12-04T22:09:34.898Z,4.10
2018-12-04T22:12:06.169Z,3.80
2018-12-04T22:14:34.653Z,7.50
2018-12-04T22:17:05.243Z,1.93
2018-12-04T22:19:33.813Z,4.80
2018-12-04T22:22:04.466Z,3.90
2018-12-04T22:24:32.916Z,4.03
2018-12-04T22:27:03.485Z,4.30
2018-12-04T22:29:31.866Z,3.67
2018-12-04T22:32:00.386Z,4.23
2018-12-04T22:34:28.780Z,4.10
2018-12-04T22:36:57.906Z,4.40
2018-12-04T22:39:26.551Z,3.53
2018-12-04T22:41:55.040Z,4.53
2018-12-04T22:44:23.440Z,4.10
2018-12-04T22:46:52.102Z,4.30
2018-12-04T22:49:20.492Z,4.40
2018-12-04T22:51:48.921Z,5.07
2018-12-04T22:54:17.312Z,4.27
2018-12-04T22:56:45.754Z,6.13
2018-12-04T22:59:14.146Z,4.00
2018-12-04T23:01:42.953Z,6.67
2018-12-04T23:04:11.465Z,2.60
2018-12-04T23:06:39.904Z,4.17
2018-12-04T23:09:10.433Z,4.37
2018-12-04T23:11:39.306Z,2.67
2018-12-04T23:14:08.069Z,5.37
2018-12-04T23:16:36.629Z,4.03
2018-12-04T23:19:07.305Z,5.23
2018-12-04T23:21:35.742Z,5.87
2018-12-04T23:24:06.174Z,4.20
2018-12-04T23:26:34.696Z,5.57
2018-12-04T23:29:07.680Z,6.80
2018-12-04T23:31:36.191Z,2.83
2018-12-04T23:34:05.425Z,4.43
2018-12-04T23:36:33.809Z,6.07
2018-12-04T23:39:08.448Z,3.20
2018-12-04T23:41:36.956Z,4.63
2018-12-04T23:44:05.527Z,4.70
2018-12-04T23:46:33.969Z,5.10
2018-12-04T23:49:04.796Z,5.27
2018-12-04T23:51:33.193Z,3.97
2018-12-04T23:54:03.717Z,3.27
2018-12-04T23:56:32.093Z,4.77
2018-12-04T23:59:00.525Z,4.57
